Time;durP1;ratioP1;P1;durP2;ratioP2;P2;SDS_P1;SDS_P2;PMS_P1;PMS_P2;Temp;Humidity;BMP_temperature;BMP_pressure;BME280_temperature;BME280_humidity;BME280_pressure;Samples;Min_cycle;Max_cycle;Signal;HPM_P1;HPM_P2
2021/11/04 00:00:09;;;;;;;0.73;0.73;;;4.90;99.90;;;;;;5033314;28;20642;-87
2021/11/04 00:02:35;;;;;;;0.28;0.28;;;4.90;99.90;;;;;;5022170;28;20204;-88
2021/11/04 00:05:01;;;;;;;0.30;0.30;;;4.80;99.90;;;;;;5036787;28;20197;-88
2021/11/04 00:07:27;;;;;;;0.30;0.30;;;4.80;99.90;;;;;;5020277;28;20205;-89
2021/11/04 00:09:53;;;;;;;0.20;0.20;;;4.80;99.90;;;;;;5034204;28;20204;-88
2021/11/04 00:12:18;;;;;;;0.20;0.20;;;4.80;99.90;;;;;;5034784;28;20201;-87
2021/11/04 00:14:44;;;;;;;0.30;0.30;;;4.80;99.90;;;;;;5036503;28;20571;-88
2021/11/04 00:17:10;;;;;;;0.32;0.32;;;4.80;99.90;;;;;;5054243;28;20233;-89
2021/11/04 00:19:36;;;;;;;0.22;0.22;;;4.70;99.90;;;;;;5036162;28;20200;-89
2021/11/04 00:22:02;;;;;;;0.28;0.28;;;4.70;99.90;;;;;;5037305;28;20229;-91
2021/11/04 00:24:28;;;;;;;0.30;0.30;;;4.60;99.90;;;;;;5037543;28;20198;-90
2021/11/04 00:26:54;;;;;;;0.35;0.35;;;4.60;99.90;;;;;;5036615;28;20731;-89
2021/11/04 00:29:20;;;;;;;0.30;0.30;;;4.50;99.90;;;;;;5036126;28;20193;-88
2021/11/04 00:31:46;;;;;;;0.20;0.20;;;4.40;99.90;;;;;;5037530;28;20206;-89
2021/11/04 00:34:12;;;;;;;0.40;0.40;;;4.30;99.90;;;;;;5035688;28;20253;-90
2021/11/04 00:36:37;;;;;;;0.30;0.30;;;4.20;99.90;;;;;;5036166;28;20312;-89
2021/11/04 00:39:04;;;;;;;0.35;0.35;;;4.10;99.90;;;;;;5054306;28;20656;-90
2021/11/04 00:41:30;;;;;;;0.47;0.47;;;4.00;99.90;;;;;;5036550;28;20216;-90
2021/11/04 00:43:58;;;;;;;0.30;0.30;;;3.90;99.90;;;;;;5044910;28;20201;-90
2021/11/04 00:46:24;;;;;;;0.30;0.30;;;3.90;99.90;;;;;;5044797;28;20264;-90
2021/11/04 00:48:50;;;;;;;0.32;0.32;;;3.80;99.90;;;;;;5039593;28;20209;-89
2021/11/04 00:51:15;;;;;;;0.30;0.30;;;3.80;99.90;;;;;;5038565;28;20202;-89
2021/11/04 00:53:41;;;;;;;0.38;0.38;;;3.80;99.90;;;;;;5037806;28;20205;-89
2021/11/04 00:56:07;;;;;;;0.30;0.30;;;3.70;99.90;;;;;;5036297;28;20205;-89
2021/11/04 00:58:32;;;;;;;0.22;0.22;;;3.60;99.90;;;;;;5037264;28;20583;-89
2021/11/04 01:00:58;;;;;;;0.20;0.20;;;3.60;99.90;;;;;;5037419;28;20198;-89
2021/11/04 01:03:26;;;;;;;0.47;0.47;;;3.70;99.90;;;;;;5036527;28;20205;-89
2021/11/04 01:05:52;;;;;;;0.17;0.17;;;3.70;99.90;;;;;;5054007;28;20205;-89
2021/11/04 01:08:18;;;;;;;0.40;0.40;;;3.70;99.90;;;;;;5036107;28;20228;-88
2021/11/04 01:10:43;;;;;;;0.30;0.30;;;3.70;99.90;;;;;;5036256;28;20243;-89
2021/11/04 01:13:09;;;;;;;0.20;0.20;;;3.70;99.90;;;;;;5035860;28;20208;-88
2021/11/04 01:15:35;;;;;;;0.30;0.30;;;3.70;99.90;;;;;;5035315;28;20209;-88
2021/11/04 01:18:01;;;;;;;0.30;0.30;;;3.70;99.90;;;;;;5053364;28;20205;-89
2021/11/04 01:20:27;;;;;;;0.28;0.28;;;3.70;99.90;;;;;;5052858;28;20599;-90
2021/11/04 01:22:53;;;;;;;0.30;0.30;;;3.80;99.90;;;;;;5035293;28;20202;-88
2021/11/04 01:25:19;;;;;;;0.40;0.40;;;3.80;99.90;;;;;;5035124;28;20212;-87
2021/11/04 01:27:45;;;;;;;0.30;0.30;;;3.90;99.90;;;;;;5035414;28;20339;-88
2021/11/04 01:30:11;;;;;;;0.30;0.30;;;4.00;99.90;;;;;;5035439;28;20383;-88
2021/11/04 01:32:37;;;;;;;1.48;1.38;;;4.10;99.90;;;;;;5034396;28;20618;-88
2021/11/04 01:35:06;;;;;;;0.30;0.30;;;4.20;99.90;;;;;;5034823;28;20193;-86
2021/11/04 01:37:32;;;;;;;0.30;0.30;;;4.30;99.90;;;;;;5034573;28;20217;-88
2021/11/04 01:39:58;;;;;;;0.20;0.20;;;4.30;99.90;;;;;;5035916;28;20208;-89
2021/11/04 01:42:25;;;;;;;0.30;0.30;;;4.40;99.90;;;;;;5052209;28;20678;-88
2021/11/04 01:44:50;;;;;;;0.70;0.70;;;4.40;99.90;;;;;;5035809;28;20573;-89
2021/11/04 01:47:16;;;;;;;0.20;0.20;;;4.50;99.90;;;;;;5034297;28;20197;-88
2021/11/04 01:49:42;;;;;;;0.30;0.30;;;4.60;99.90;;;;;;5034364;28;20193;-87
2021/11/04 01:52:10;;;;;;;0.20;0.20;;;4.50;99.90;;;;;;5034625;28;20201;-87
2021/11/04 01:54:36;;;;;;;0.30;0.30;;;4.50;99.90;;;;;;5064671;28;20209;-88
2021/11/04 01:57:03;;;;;;;0.40;0.40;;;4.50;99.90;;;;;;5034397;28;20291;-88
2021/11/04 01:59:29;;;;;;;0.40;0.40;;;4.50;99.90;;;;;;5034167;28;20208;-90
2021/11/04 02:02:04;;;;;;;0.30;0.30;;;4.50;99.90;;;;;;5035277;28;20664;-86
2021/11/04 02:04:38;;;;;;;0.35;0.35;;;4.40;99.90;;;;;;5033426;28;20615;-86
2021/11/04 02:07:21;;;;;;;0.45;0.45;;;4.40;99.90;;;;;;5033288;28;20205;-86
2021/11/04 02:10:13;;;;;;;0.38;0.38;;;4.30;99.90;;;;;;5033661;28;20198;-86
2021/11/04 02:12:57;;;;;;;0.30;0.30;;;4.20;99.90;;;;;;5033148;28;20695;-85
2021/11/04 02:15:26;;;;;;;0.22;0.22;;;4.20;99.90;;;;;;5017118;28;20198;-86
2021/11/04 02:17:55;;;;;;;0.52;0.52;;;4.20;99.90;;;;;;5033428;28;20293;-85
2021/11/04 02:20:37;;;;;;;0.50;0.50;;;4.20;99.90;;;;;;5033487;28;20280;-86
2021/11/04 02:23:17;;;;;;;0.20;0.20;;;4.10;99.90;;;;;;5017116;28;20285;-86
2021/11/04 02:25:45;;;;;;;0.30;0.30;;;4.10;99.90;;;;;;5035136;28;20288;-86
2021/11/04 02:28:13;;;;;;;0.20;0.20;;;4.00;99.90;;;;;;5033278;28;20201;-86
2021/11/04 02:30:40;;;;;;;0.32;0.32;;;3.90;99.90;;;;;;5033188;28;20213;-86
2021/11/04 02:33:07;;;;;;;0.40;0.40;;;3.80;99.90;;;;;;5051126;28;20225;-86
2021/11/04 02:35:33;;;;;;;0.35;0.35;;;3.60;99.90;;;;;;5033891;28;20209;-86
2021/11/04 02:37:59;;;;;;;0.45;0.45;;;3.60;99.90;;;;;;5017195;28;20210;-85
2021/11/04 02:40:26;;;;;;;5.65;0.95;;;3.50;99.90;;;;;;5032674;28;20226;-85
2021/11/04 02:42:52;;;;;;;0.32;0.32;;;3.50;99.90;;;;;;5034324;28;20300;-86
2021/11/04 02:45:23;;;;;;;0.40;0.40;;;3.50;99.90;;;;;;5052678;28;20223;-85
2021/11/04 02:47:50;;;;;;;0.30;0.30;;;3.30;99.90;;;;;;5033069;28;20205;-85
2021/11/04 02:50:17;;;;;;;0.30;0.30;;;3.20;99.90;;;;;;5033881;28;20243;-85
2021/11/04 02:52:43;;;;;;;0.30;0.30;;;3.10;99.90;;;;;;5034402;28;20698;-85
2021/11/04 02:55:09;;;;;;;0.30;0.30;;;3.00;99.90;;;;;;5033243;28;20305;-86
2021/11/04 02:57:43;;;;;;;0.30;0.30;;;3.00;99.90;;;;;;5034064;28;20209;-87
2021/11/04 03:00:10;;;;;;;0.17;0.17;;;3.00;99.90;;;;;;5033002;28;20200;-86
2021/11/04 03:02:36;;;;;;;0.40;0.40;;;3.00;99.90;;;;;;5048608;28;20209;-85
2021/11/04 03:05:01;;;;;;;0.40;0.40;;;2.90;99.90;;;;;;5034546;28;20194;-85
2021/11/04 03:07:27;;;;;;;0.35;0.35;;;2.80;99.90;;;;;;5032898;28;20259;-85
2021/11/04 03:09:52;;;;;;;0.30;0.30;;;2.80;99.90;;;;;;5033169;28;20226;-85
2021/11/04 03:12:18;;;;;;;0.95;0.95;;;2.80;99.90;;;;;;5054008;28;20239;-86
2021/11/04 03:14:45;;;;;;;0.30;0.30;;;2.80;99.90;;;;;;5054867;28;20202;-85
2021/11/04 03:17:11;;;;;;;0.30;0.30;;;2.80;99.90;;;;;;5036433;28;20209;-85
2021/11/04 03:19:38;;;;;;;0.32;0.32;;;2.80;99.90;;;;;;5054349;28;20716;-84
2021/11/04 03:22:04;;;;;;;0.35;0.35;;;2.90;99.90;;;;;;5054307;28;20189;-86
2021/11/04 03:24:30;;;;;;;0.30;0.30;;;2.90;99.90;;;;;;5036321;28;20203;-85
2021/11/04 03:27:05;;;;;;;0.20;0.20;;;2.90;99.90;;;;;;5054503;28;20201;-85
2021/11/04 03:29:35;;;;;;;2.50;0.82;;;3.00;99.90;;;;;;5054170;28;20271;-85
2021/11/04 03:32:03;;;;;;;0.28;0.28;;;3.00;99.90;;;;;;5036356;28;20204;-85
2021/11/04 03:34:30;;;;;;;0.82;0.82;;;3.00;99.90;;;;;;5055618;28;20225;-85
2021/11/04 03:36:57;;;;;;;0.30;0.30;;;3.00;99.90;;;;;;5036161;28;20197;-85
2021/11/04 03:39:23;;;;;;;0.30;0.30;;;3.00;99.90;;;;;;5035951;28;20213;-84
2021/11/04 03:41:55;;;;;;;0.60;0.60;;;3.10;99.90;;;;;;5035931;28;20201;-85
2021/11/04 03:44:23;;;;;;;0.30;0.30;;;3.10;99.90;;;;;;5035887;28;20332;-85
2021/11/04 03:46:50;;;;;;;0.40;0.40;;;3.10;99.90;;;;;;5054021;28;20247;-85
2021/11/04 03:49:18;;;;;;;0.40;0.40;;;3.20;99.90;;;;;;5036080;28;20208;-85
2021/11/04 03:51:46;;;;;;;0.20;0.20;;;3.20;99.90;;;;;;5053844;28;20201;-85
2021/11/04 03:54:12;;;;;;;0.20;0.20;;;3.30;99.90;;;;;;5037238;28;20675;-85
2021/11/04 03:56:40;;;;;;;0.20;0.20;;;3.30;99.90;;;;;;5037128;28;20296;-85
2021/11/04 03:59:06;;;;;;;0.28;0.28;;;3.40;99.90;;;;;;5035988;28;20630;-85
2021/11/04 04:01:34;;;;;;;0.63;0.63;;;3.40;99.90;;;;;;5036182;28;20235;-85
2021/11/04 04:04:01;;;;;;;0.30;0.30;;;3.50;99.90;;;;;;5034867;28;20271;-86
2021/11/04 04:06:27;;;;;;;0.30;0.30;;;3.50;99.90;;;;;;5035040;28;20275;-87
2021/11/04 04:08:54;;;;;;;1.15;1.05;;;3.60;99.90;;;;;;5036989;28;20244;-86
2021/11/04 04:11:22;;;;;;;0.40;0.40;;;3.70;99.90;;;;;;5033808;28;20720;-86
2021/11/04 04:13:50;;;;;;;0.75;0.75;;;3.80;99.90;;;;;;5035435;28;20216;-85
2021/11/04 04:16:17;;;;;;;0.25;0.25;;;3.80;99.90;;;;;;5053395;28;20569;-85
2021/11/04 04:18:43;;;;;;;0.30;0.30;;;3.90;99.90;;;;;;5035316;28;20209;-85
2021/11/04 04:21:09;;;;;;;0.40;0.40;;;4.00;99.90;;;;;;5031672;28;20201;-86
2021/11/04 04:23:34;;;;;;;0.30;0.30;;;4.00;99.90;;;;;;5034021;28;20240;-85
2021/11/04 04:26:00;;;;;;;0.50;0.50;;;4.10;99.90;;;;;;5035251;28;20252;-86
2021/11/04 04:28:26;;;;;;;0.30;0.30;;;4.10;99.90;;;;;;5035048;28;20202;-85
2021/11/04 04:30:51;;;;;;;0.20;0.20;;;4.10;99.90;;;;;;5035218;28;20206;-85
2021/11/04 04:33:17;;;;;;;0.30;0.30;;;4.20;99.90;;;;;;5022946;28;20225;-85
2021/11/04 04:35:43;;;;;;;0.20;0.20;;;4.20;99.90;;;;;;5015216;28;20210;-85
2021/11/04 04:38:08;;;;;;;0.20;0.20;;;4.30;99.90;;;;;;5015791;28;20294;-84
2021/11/04 04:40:34;;;;;;;0.50;0.50;;;4.30;99.90;;;;;;5014870;28;20209;-85
2021/11/04 04:43:01;;;;;;;0.30;0.30;;;4.30;99.90;;;;;;5015053;28;20271;-85
2021/11/04 04:45:26;;;;;;;0.60;0.60;;;4.30;99.90;;;;;;5015789;28;20747;-85
2021/11/04 04:47:52;;;;;;;0.20;0.20;;;4.30;99.90;;;;;;5014911;28;20247;-86
2021/11/04 04:50:18;;;;;;;0.28;0.28;;;4.30;99.90;;;;;;5014945;28;20206;-85
2021/11/04 04:52:43;;;;;;;0.88;0.88;;;4.30;99.90;;;;;;5032811;28;20205;-85
2021/11/04 04:55:09;;;;;;;0.30;0.30;;;4.30;99.90;;;;;;5015505;28;20225;-84
2021/11/04 04:57:36;;;;;;;0.40;0.40;;;4.30;99.90;;;;;;5030783;28;20218;-86
2021/11/04 05:00:10;;;;;;;0.30;0.30;;;4.30;99.90;;;;;;5032809;28;20258;-85
2021/11/04 05:02:36;;;;;;;0.30;0.30;;;4.30;99.90;;;;;;5031337;28;20621;-85
2021/11/04 05:05:02;;;;;;;0.30;0.30;;;4.30;99.90;;;;;;5014501;28;20225;-85
2021/11/04 05:07:28;;;;;;;0.30;0.30;;;4.40;99.90;;;;;;5015566;28;20210;-85
2021/11/04 05:09:54;;;;;;;0.32;0.32;;;4.30;99.90;;;;;;5014974;28;20202;-85
2021/11/04 05:12:20;;;;;;;0.30;0.30;;;4.30;99.90;;;;;;5012787;28;20293;-85
2021/11/04 05:14:46;;;;;;;0.30;0.30;;;4.30;99.90;;;;;;5014593;28;20206;-85
2021/11/04 05:17:12;;;;;;;0.30;0.30;;;4.30;99.90;;;;;;5014360;28;20649;-85
2021/11/04 05:19:38;;;;;;;0.30;0.30;;;4.40;99.90;;;;;;5031974;28;20685;-85
2021/11/04 05:22:04;;;;;;;0.30;0.30;;;4.40;99.90;;;;;;5015080;28;20203;-85
2021/11/04 05:24:34;;;;;;;0.30;0.30;;;4.40;99.90;;;;;;5015432;28;20198;-85
2021/11/04 05:27:01;;;;;;;0.25;0.25;;;4.40;99.90;;;;;;5033450;28;20198;-85
2021/11/04 05:29:27;;;;;;;0.30;0.30;;;4.40;99.90;;;;;;5014089;28;20202;-86
2021/11/04 05:31:53;;;;;;;0.20;0.20;;;4.40;99.90;;;;;;5014641;28;20202;-86
2021/11/04 05:34:19;;;;;;;0.20;0.20;;;4.40;99.90;;;;;;5034934;28;20546;-86
2021/11/04 05:36:44;;;;;;;0.35;0.35;;;4.30;99.90;;;;;;5034828;28;20205;-84
2021/11/04 05:39:10;;;;;;;0.30;0.30;;;4.30;99.90;;;;;;5035831;28;20209;-86
2021/11/04 05:41:36;;;;;;;0.40;0.40;;;4.20;99.90;;;;;;5034179;28;20343;-84
2021/11/04 05:44:02;;;;;;;0.30;0.30;;;4.20;99.90;;;;;;5052726;28;20201;-83
2021/11/04 05:46:27;;;;;;;0.28;0.28;;;4.20;99.90;;;;;;5035605;28;20586;-84
2021/11/04 05:48:53;;;;;;;0.30;0.30;;;4.10;99.90;;;;;;5034514;28;20205;-84
2021/11/04 05:51:19;;;;;;;0.30;0.30;;;4.00;99.90;;;;;;5033874;28;20288;-85
2021/11/04 05:53:44;;;;;;;0.20;0.20;;;3.90;99.90;;;;;;5034898;28;20683;-85
2021/11/04 05:56:10;;;;;;;0.40;0.40;;;3.90;99.90;;;;;;5033858;28;20209;-85
2021/11/04 05:58:35;;;;;;;0.25;0.25;;;3.80;99.90;;;;;;5035785;28;20209;-85
2021/11/04 06:01:01;;;;;;;0.40;0.40;;;3.70;99.90;;;;;;5051318;28;20296;-85
2021/11/04 06:03:27;;;;;;;0.30;0.30;;;3.70;99.90;;;;;;5034845;28;20205;-85
2021/11/04 06:05:53;;;;;;;0.30;0.30;;;3.70;99.90;;;;;;5034923;28;20632;-85
2021/11/04 06:08:19;;;;;;;0.30;0.30;;;3.70;99.90;;;;;;5033954;28;20687;-85
2021/11/04 06:10:44;;;;;;;0.40;0.40;;;3.80;99.90;;;;;;5034962;28;20202;-85
2021/11/04 06:13:10;;;;;;;0.20;0.20;;;3.80;99.90;;;;;;5051546;28;20240;-85
2021/11/04 06:15:36;;;;;;;0.30;0.30;;;3.90;99.90;;;;;;5033563;28;20206;-85
2021/11/04 06:18:02;;;;;;;0.30;0.30;;;3.90;99.90;;;;;;5034522;28;20205;-85
2021/11/04 06:20:27;;;;;;;0.30;0.30;;;4.00;99.90;;;;;;5034149;28;20232;-85
2021/11/04 06:22:53;;;;;;;0.30;0.30;;;4.10;99.90;;;;;;5033289;28;20201;-85
2021/11/04 06:25:19;;;;;;;0.40;0.40;;;4.10;99.90;;;;;;5034406;28;20745;-85
2021/11/04 06:27:45;;;;;;;0.30;0.30;;;4.20;99.90;;;;;;5033609;28;20233;-85
2021/11/04 06:30:12;;;;;;;0.40;0.40;;;4.30;99.90;;;;;;5034764;28;20189;-85
2021/11/04 06:32:38;;;;;;;0.30;0.30;;;4.30;99.90;;;;;;5050995;28;20244;-86
2021/11/04 06:35:06;;;;;;;0.50;0.45;;;4.30;99.90;;;;;;5033997;28;20205;-86
2021/11/04 06:37:31;;;;;;;0.35;0.35;;;4.30;99.90;;;;;;5033980;28;20649;-85
2021/11/04 06:39:57;;;;;;;0.30;0.30;;;4.20;99.90;;;;;;5032965;28;20232;-86
2021/11/04 06:42:23;;;;;;;0.30;0.30;;;4.20;99.90;;;;;;5034161;28;20237;-86
2021/11/04 06:44:49;;;;;;;0.20;0.20;;;4.10;99.90;;;;;;5051195;28;20237;-84
2021/11/04 06:47:28;;;;;;;0.30;0.30;;;4.00;99.90;;;;;;5054596;28;20197;-85
2021/11/04 06:49:57;;;;;;;0.32;0.32;;;3.90;99.90;;;;;;5038393;28;20196;-84
2021/11/04 06:52:37;;;;;;;0.30;0.30;;;3.80;99.90;;;;;;5037107;28;20236;-85
2021/11/04 06:55:05;;;;;;;0.40;0.40;;;3.70;99.90;;;;;;5038285;28;20203;-85
2021/11/04 06:57:34;;;;;;;0.40;0.40;;;3.60;99.90;;;;;;5036942;28;20233;-85
2021/11/04 07:00:05;;;;;;;0.30;0.30;;;3.50;99.90;;;;;;5039402;28;20198;-85
2021/11/04 07:02:36;;;;;;;0.30;0.30;;;3.40;99.90;;;;;;5036536;28;20252;-85
2021/11/04 07:05:04;;;;;;;0.40;0.40;;;3.40;99.90;;;;;;5038042;28;20194;-86
2021/11/04 07:07:44;;;;;;;0.20;0.20;;;3.40;99.90;;;;;;5054935;28;20205;-86
2021/11/04 07:10:11;;;;;;;0.30;0.30;;;3.30;99.90;;;;;;5038107;28;20205;-85
2021/11/04 07:12:46;;;;;;;0.30;0.30;;;3.20;99.90;;;;;;5037571;28;20219;-85
2021/11/04 07:15:14;;;;;;;0.20;0.20;;;3.10;99.90;;;;;;5036742;28;20200;-86
2021/11/04 07:17:41;;;;;;;0.30;0.30;;;3.10;99.90;;;;;;5054287;28;20595;-85
2021/11/04 07:20:07;;;;;;;0.50;0.50;;;3.10;99.90;;;;;;5036837;28;20660;-84
2021/11/04 07:22:40;;;;;;;0.30;0.30;;;3.10;99.90;;;;;;5036372;28;20645;-84
2021/11/04 07:25:08;;;;;;;0.28;0.28;;;3.10;99.90;;;;;;5036597;28;20197;-84
2021/11/04 07:27:57;;;;;;;0.30;0.30;;;3.10;99.90;;;;;;5054283;28;20689;-85
2021/11/04 07:30:24;;;;;;;0.30;0.30;;;3.10;99.90;;;;;;5027423;28;20696;-86
2021/11/04 07:32:55;;;;;;;0.30;0.30;;;3.10;99.90;;;;;;5037316;28;20225;-85
2021/11/04 07:35:25;;;;;;;0.30;0.30;;;3.10;99.90;;;;;;5044325;28;20295;-86
2021/11/04 07:37:51;;;;;;;0.30;0.30;;;3.10;99.90;;;;;;5047102;28;20296;-85
2021/11/04 07:40:19;;;;;;;0.40;0.40;;;3.20;99.90;;;;;;5036543;28;20619;-85
2021/11/04 07:42:46;;;;;;;0.30;0.30;;;3.20;99.90;;;;;;5037111;28;20224;-85
2021/11/04 07:45:12;;;;;;;0.22;0.22;;;3.20;99.90;;;;;;5036988;28;20201;-85
2021/11/04 07:47:40;;;;;;;0.55;0.55;;;3.20;99.90;;;;;;5054794;28;20580;-86
2021/11/04 07:50:07;;;;;;;0.20;0.20;;;3.20;99.90;;;;;;5036684;28;20651;-84
2021/11/04 07:52:34;;;;;;;1.17;1.05;;;3.20;99.90;;;;;;5035961;28;20209;-85
2021/11/04 07:55:02;;;;;;;0.32;0.32;;;3.20;99.90;;;;;;5037607;28;20231;-85
2021/11/04 07:57:28;;;;;;;0.25;0.25;;;3.30;99.90;;;;;;5018482;28;20739;-86
2021/11/04 07:59:54;;;;;;;0.40;0.40;;;3.40;99.90;;;;;;5038143;28;20293;-84
2021/11/04 08:02:19;;;;;;;0.22;0.22;;;3.50;99.90;;;;;;5054367;28;20284;-85
2021/11/04 08:04:45;;;;;;;0.40;0.40;;;3.60;99.90;;;;;;5036325;28;20615;-85
2021/11/04 08:07:11;;;;;;;0.35;0.35;;;3.60;99.90;;;;;;5035597;28;20642;-85
2021/11/04 08:09:37;;;;;;;0.20;0.20;;;3.70;99.90;;;;;;5033837;28;20212;-85
2021/11/04 08:12:03;;;;;;;0.30;0.30;;;3.80;99.90;;;;;;5035830;28;20335;-85
2021/11/04 08:14:29;;;;;;;0.35;0.35;;;3.90;99.90;;;;;;5053557;28;20225;-84
2021/11/04 08:16:55;;;;;;;0.88;0.88;;;3.90;99.90;;;;;;5036590;28;20284;-85
2021/11/04 08:19:21;;;;;;;2.05;0.75;;;4.00;99.90;;;;;;5035503;28;20221;-85
2021/11/04 08:21:46;;;;;;;0.30;0.30;;;4.10;99.90;;;;;;5036714;28;20205;-86
2021/11/04 08:24:12;;;;;;;0.20;0.20;;;4.10;99.90;;;;;;5036381;28;20198;-86
2021/11/04 08:26:38;;;;;;;0.20;0.20;;;4.20;99.90;;;;;;5036417;28;20292;-86
2021/11/04 08:29:04;;;;;;;0.40;0.40;;;4.30;99.90;;;;;;5036411;28;20299;-84
2021/11/04 08:31:31;;;;;;;0.30;0.30;;;4.40;99.90;;;;;;5037276;28;20301;-86
2021/11/04 08:33:57;;;;;;;0.32;0.32;;;4.50;99.90;;;;;;5028194;28;20629;-86
2021/11/04 08:36:23;;;;;;;1.67;0.80;;;4.50;99.90;;;;;;5032901;28;20295;-86
2021/11/04 08:38:49;;;;;;;1.20;0.40;;;4.60;99.90;;;;;;5015304;28;20305;-87
2021/11/04 08:41:15;;;;;;;0.43;0.43;;;4.70;99.90;;;;;;5034286;28;20242;-86
2021/11/04 08:43:41;;;;;;;0.30;0.30;;;4.80;99.90;;;;;;5033001;28;20214;-86
2021/11/04 08:46:07;;;;;;;0.40;0.40;;;4.90;99.90;;;;;;5015439;28;20225;-86
2021/11/04 08:48:33;;;;;;;0.40;0.40;;;4.90;99.90;;;;;;5015334;28;20260;-86
2021/11/04 08:50:59;;;;;;;0.30;0.30;;;4.90;99.90;;;;;;5015796;28;20202;-87
2021/11/04 08:53:25;;;;;;;0.20;0.20;;;5.00;99.90;;;;;;5015709;28;20706;-85
2021/11/04 08:55:51;;;;;;;0.20;0.20;;;5.00;99.90;;;;;;5016131;28;20206;-84
2021/11/04 08:58:16;;;;;;;0.30;0.30;;;5.10;99.90;;;;;;5015196;28;20221;-86
2021/11/04 09:00:43;;;;;;;0.30;0.30;;;5.10;99.90;;;;;;5014870;28;20210;-86
2021/11/04 09:03:37;;;;;;;0.20;0.20;;;5.20;99.90;;;;;;5015399;28;20263;-86
2021/11/04 09:06:04;;;;;;;0.28;0.28;;;5.40;99.90;;;;;;5030884;28;20213;-87
2021/11/04 09:08:31;;;;;;;0.20;0.20;;;5.50;99.90;;;;;;5015189;28;20206;-85
2021/11/04 09:10:57;;;;;;;0.60;0.60;;;5.50;99.90;;;;;;5014854;28;20209;-85
2021/11/04 09:13:23;;;;;;;0.30;0.30;;;5.60;99.90;;;;;;5014415;28;20205;-86
2021/11/04 09:15:50;;;;;;;0.30;0.30;;;5.80;99.90;;;;;;5013968;28;20563;-85
2021/11/04 09:18:19;;;;;;;0.20;0.20;;;5.90;99.90;;;;;;5014865;28;20222;-84
2021/11/04 09:20:49;;;;;;;0.30;0.30;;;5.90;99.90;;;;;;5013007;28;20604;-85
2021/11/04 09:23:15;;;;;;;0.20;0.20;;;5.90;99.90;;;;;;5014626;28;20209;-85
2021/11/04 09:25:41;;;;;;;0.30;0.30;;;5.90;99.90;;;;;;5014707;28;20289;-86
2021/11/04 09:28:07;;;;;;;0.20;0.20;;;6.00;99.90;;;;;;5014543;28;20209;-85
2021/11/04 09:30:33;;;;;;;0.20;0.20;;;6.00;99.90;;;;;;5014370;28;20205;-86
2021/11/04 09:32:58;;;;;;;0.30;0.30;;;6.00;99.90;;;;;;5023989;28;20708;-86
2021/11/04 09:35:25;;;;;;;0.30;0.30;;;6.10;99.90;;;;;;5034235;28;20206;-86
2021/11/04 09:37:51;;;;;;;0.32;0.32;;;6.00;99.90;;;;;;5034241;28;20213;-86
2021/11/04 09:40:18;;;;;;;0.28;0.28;;;6.00;99.90;;;;;;5035525;28;20228;-85
2021/11/04 09:42:45;;;;;;;0.22;0.22;;;6.00;99.90;;;;;;5033838;28;20205;-85
2021/11/04 09:45:11;;;;;;;10.05;1.50;;;6.00;99.90;;;;;;5034025;28;20686;-85
2021/11/04 09:47:37;;;;;;;0.20;0.20;;;6.10;99.90;;;;;;5052063;28;20285;-85
2021/11/04 09:50:09;;;;;;;0.30;0.30;;;6.20;99.90;;;;;;5034261;28;20520;-85
2021/11/04 09:52:37;;;;;;;1.45;0.85;;;6.20;99.90;;;;;;5035128;28;20214;-85
2021/11/04 09:55:08;;;;;;;0.40;0.40;;;6.40;99.90;;;;;;5033882;28;20193;-84
2021/11/04 09:57:34;;;;;;;0.30;0.30;;;6.40;99.90;;;;;;5033584;28;20692;-85
2021/11/04 10:00:00;;;;;;;0.30;0.30;;;6.30;99.90;;;;;;5034063;28;20216;-86
2021/11/04 10:02:27;;;;;;;0.30;0.30;;;6.30;99.90;;;;;;5051521;28;20197;-85
2021/11/04 10:05:08;;;;;;;0.28;0.28;;;6.30;99.90;;;;;;5034074;28;20197;-85
2021/11/04 10:07:50;;;;;;;0.40;0.40;;;6.40;99.90;;;;;;5034943;28;20276;-85
2021/11/04 10:10:19;;;;;;;0.30;0.30;;;6.40;99.90;;;;;;5052950;28;20288;-83
2021/11/04 10:13:00;;;;;;;0.28;0.28;;;6.40;99.90;;;;;;5033683;28;20746;-83
2021/11/04 10:15:26;;;;;;;0.25;0.25;;;6.50;99.90;;;;;;5033715;28;20274;-86
2021/11/04 10:17:52;;;;;;;0.30;0.30;;;6.50;99.90;;;;;;5034929;28;20296;-86
2021/11/04 10:20:18;;;;;;;0.25;0.25;;;6.50;99.90;;;;;;5033875;28;20684;-86
2021/11/04 10:22:57;;;;;;;0.20;0.20;;;6.50;99.90;;;;;;5033608;28;20197;-87
2021/11/04 10:25:24;;;;;;;0.20;0.20;;;6.40;99.90;;;;;;5033353;28;20635;-87
2021/11/04 10:27:50;;;;;;;0.32;0.32;;;6.40;99.90;;;;;;5033963;28;20660;-87
2021/11/04 10:30:38;;;;;;;0.50;0.50;;;6.40;99.90;;;;;;5051554;28;20197;-86
2021/11/04 10:33:25;;;;;;;0.63;0.30;;;6.40;99.90;;;;;;5033300;28;20229;-86
2021/11/04 10:36:19;;;;;;;0.28;0.28;;;6.50;99.90;;;;;;5034188;28;20204;-85
2021/11/04 10:38:50;;;;;;;0.20;0.20;;;6.60;99.90;;;;;;5033298;28;20205;-86
2021/11/04 10:41:19;;;;;;;0.20;0.20;;;6.60;99.90;;;;;;5052351;28;20665;-86
2021/11/04 10:43:46;;;;;;;0.30;0.30;;;6.60;99.90;;;;;;5033199;28;20205;-86
2021/11/04 10:46:13;;;;;;;0.13;0.13;;;6.60;99.90;;;;;;5051162;28;20233;-86
2021/11/04 10:48:41;;;;;;;0.30;0.30;;;6.70;99.90;;;;;;5033059;28;20206;-86
2021/11/04 10:51:12;;;;;;;0.20;0.20;;;6.70;99.90;;;;;;5026567;28;20782;-86
2021/11/04 10:53:38;;;;;;;0.30;0.30;;;6.70;99.90;;;;;;5028265;28;20216;-86
2021/11/04 10:56:20;;;;;;;0.20;0.20;;;6.70;99.90;;;;;;5028999;28;20202;-86
2021/11/04 10:59:10;;;;;;;0.30;0.30;;;6.70;99.90;;;;;;5034532;28;20248;-86
2021/11/04 11:01:53;;;;;;;0.30;0.30;;;6.80;99.90;;;;;;5033082;28;20206;-85
2021/11/04 11:04:32;;;;;;;0.40;0.40;;;6.90;99.90;;;;;;5052110;28;20661;-86
2021/11/04 11:06:58;;;;;;;0.50;0.50;;;6.90;99.90;;;;;;5034386;28;20276;-85
2021/11/04 11:09:26;;;;;;;0.20;0.20;;;6.80;99.90;;;;;;5034070;28;20209;-87
2021/11/04 11:11:56;;;;;;;0.30;0.30;;;6.80;99.90;;;;;;5034540;28;20576;-85
2021/11/04 11:14:22;;;;;;;0.30;0.30;;;6.80;99.90;;;;;;5032780;28;20205;-86
2021/11/04 11:16:53;;;;;;;0.20;0.20;;;6.80;99.90;;;;;;5033082;28;20208;-86
2021/11/04 11:19:44;;;;;;;0.30;0.30;;;6.90;99.90;;;;;;5033997;28;20209;-86
2021/11/04 11:22:18;;;;;;;0.30;0.30;;;6.80;99.90;;;;;;5050905;28;20564;-86
2021/11/04 11:24:44;;;;;;;0.65;0.65;;;6.60;99.90;;;;;;5032868;28;20233;-86
2021/11/04 11:27:13;;;;;;;0.30;0.30;;;6.60;99.90;;;;;;5033063;28;20198;-87
2021/11/04 11:29:44;;;;;;;0.30;0.30;;;6.60;99.90;;;;;;5050910;28;20209;-87
2021/11/04 11:32:20;;;;;;;0.28;0.28;;;6.50;99.90;;;;;;5034303;28;20197;-84
2021/11/04 11:34:46;;;;;;;0.40;0.40;;;6.60;99.90;;;;;;5038822;28;20193;-84
2021/11/04 11:37:14;;;;;;;1.35;0.80;;;6.60;99.90;;;;;;5036527;28;20205;-82
2021/11/04 11:39:46;;;;;;;0.35;0.35;;;6.60;99.90;;;;;;5028305;28;20213;-84
2021/11/04 11:42:14;;;;;;;0.30;0.30;;;6.50;99.90;;;;;;5036214;28;20292;-86
2021/11/04 11:44:40;;;;;;;0.30;0.30;;;6.50;99.90;;;;;;5037460;28;20218;-87
2021/11/04 11:47:51;;;;;;;0.20;0.20;;;6.60;99.90;;;;;;5055596;28;20201;-86
2021/11/04 11:50:40;;;;;;;0.30;0.30;;;6.60;99.90;;;;;;5053887;28;20579;-88
2021/11/04 11:53:26;;;;;;;0.30;0.30;;;6.60;99.90;;;;;;5034710;28;20205;-87
2021/11/04 11:55:54;;;;;;;0.20;0.20;;;6.70;99.90;;;;;;5054267;28;20727;-87
2021/11/04 11:58:43;;;;;;;0.20;0.20;;;6.80;99.90;;;;;;5036675;28;20210;-87
2021/11/04 12:01:13;;;;;;;0.20;0.20;;;6.90;99.90;;;;;;5053525;28;20197;-85
2021/11/04 12:03:40;;;;;;;0.40;0.40;;;7.00;99.90;;;;;;5035619;28;20319;-85
2021/11/04 12:06:28;;;;;;;0.32;0.32;;;7.00;99.90;;;;;;5036894;28;20209;-84
2021/11/04 12:08:59;;;;;;;0.30;0.30;;;7.00;99.90;;;;;;5036871;28;20202;-85
2021/11/04 12:11:48;;;;;;;0.30;0.30;;;7.00;99.90;;;;;;5053353;28;20624;-85
2021/11/04 12:14:24;;;;;;;0.30;0.30;;;7.10;99.90;;;;;;5054069;28;20201;-86
2021/11/04 12:17:04;;;;;;;0.25;0.25;;;7.00;99.90;;;;;;5035281;28;20225;-85
2021/11/04 12:19:41;;;;;;;0.30;0.30;;;7.00;99.90;;;;;;5052091;28;20286;-86
2021/11/04 12:22:26;;;;;;;0.30;0.30;;;7.00;99.90;;;;;;5036894;28;20561;-86
2021/11/04 12:25:00;;;;;;;0.20;0.20;;;7.00;99.90;;;;;;5018776;28;20746;-85
2021/11/04 12:27:28;;;;;;;0.77;0.77;;;6.90;99.90;;;;;;5035175;28;20351;-85
2021/11/04 12:29:56;;;;;;;0.30;0.30;;;6.80;99.90;;;;;;5035462;28;20578;-85
2021/11/04 12:32:26;;;;;;;0.30;0.30;;;6.80;99.90;;;;;;5034312;28;20671;-86
2021/11/04 12:34:59;;;;;;;0.30;0.30;;;6.90;99.90;;;;;;5035200;28;20193;-86
2021/11/04 12:37:33;;;;;;;0.30;0.30;;;6.90;99.90;;;;;;5035203;28;20201;-86
2021/11/04 12:40:14;;;;;;;0.30;0.30;;;6.90;99.90;;;;;;5034400;28;20613;-86
2021/11/04 12:42:44;;;;;;;0.43;0.43;;;6.90;99.90;;;;;;5050276;28;20617;-86
2021/11/04 12:45:23;;;;;;;0.50;0.50;;;7.00;99.90;;;;;;5035674;28;20283;-86
2021/11/04 12:47:59;;;;;;;0.30;0.30;;;6.90;99.90;;;;;;5036077;28;20208;-85
2021/11/04 12:50:30;;;;;;;0.30;0.30;;;6.80;99.90;;;;;;5035719;28;20215;-85
2021/11/04 12:53:17;;;;;;;0.20;0.20;;;6.60;99.90;;;;;;5034371;28;20211;-86
2021/11/04 12:55:42;;;;;;;0.22;0.22;;;6.40;99.90;;;;;;5052857;28;20201;-85
2021/11/04 12:58:10;;;;;;;0.25;0.25;;;6.20;99.90;;;;;;5052704;28;20672;-85
2021/11/04 13:00:37;;;;;;;0.20;0.20;;;6.10;99.90;;;;;;5033843;28;20200;-86
2021/11/04 13:03:04;;;;;;;0.30;0.30;;;6.00;99.90;;;;;;5052883;28;20218;-86
2021/11/04 13:05:30;;;;;;;0.30;0.30;;;5.90;99.90;;;;;;5052638;28;20207;-86